createdAt,value
2018-06-15T00:00:32.699Z,17.00
2018-06-15T00:01:32.676Z,17.00
2018-06-15T00:02:32.684Z,18.20
2018-06-15T00:03:32.649Z,16.90
2018-06-15T00:04:32.636Z,17.00
2018-06-15T00:05:32.628Z,17.50
2018-06-15T00:06:32.608Z,17.30
2018-06-15T00:07:32.602Z,17.20
2018-06-15T00:08:32.606Z,17.60
2018-06-15T00:09:32.573Z,17.50
2018-06-15T00:10:32.555Z,17.80
2018-06-15T00:11:32.556Z,17.80
2018-06-15T00:12:32.529Z,17.80
2018-06-15T00:13:32.530Z,17.30
2018-06-15T00:14:32.503Z,16.90
2018-06-15T00:15:32.514Z,17.70
2018-06-15T00:16:32.483Z,17.60
2018-06-15T00:17:32.460Z,17.10
2018-06-15T00:18:32.464Z,17.00
2018-06-15T00:19:32.434Z,17.50
2018-06-15T00:20:32.415Z,17.00
2018-06-15T00:21:32.406Z,17.30
2018-06-15T00:22:32.395Z,17.30
2018-06-15T00:23:32.375Z,17.90
2018-06-15T00:24:32.380Z,17.00
2018-06-15T00:25:32.380Z,16.40
2018-06-15T00:26:32.346Z,16.80
2018-06-15T00:27:32.328Z,16.70
2018-06-15T00:28:32.309Z,16.80
2018-06-15T00:29:32.310Z,17.10
2018-06-15T00:30:32.281Z,16.70
2018-06-15T00:31:32.276Z,17.60
2018-06-15T00:32:32.271Z,17.60
2018-06-15T00:33:32.243Z,17.40
2018-06-15T00:34:32.256Z,17.40
2018-06-15T00:35:32.228Z,17.20
2018-06-15T00:36:32.212Z,17.30
2018-06-15T00:37:32.194Z,17.70
2018-06-15T00:38:32.173Z,16.30
2018-06-15T00:39:32.165Z,17.00
2018-06-15T00:40:32.145Z,17.20
2018-06-15T00:41:32.151Z,17.60
2018-06-15T00:42:32.132Z,17.50
2018-06-15T00:43:32.119Z,17.20
2018-06-15T00:44:32.090Z,17.80
2018-06-15T00:45:32.073Z,18.30
2018-06-15T00:46:32.062Z,17.60
2018-06-15T00:47:32.051Z,18.10
2018-06-15T00:48:32.050Z,18.30
2018-06-15T00:49:32.025Z,18.30
2018-06-15T00:50:32.009Z,18.90
2018-06-15T00:51:32.010Z,18.60
2018-06-15T00:52:31.996Z,18.80
2018-06-15T00:53:31.967Z,18.70
2018-06-15T00:54:31.951Z,18.80
2018-06-15T00:55:31.957Z,18.00
2018-06-15T00:56:31.937Z,18.40
2018-06-15T00:57:31.913Z,18.00
2018-06-15T00:58:31.902Z,18.00
2018-06-15T00:59:31.888Z,18.10
2018-06-15T01:00:31.874Z,18.00
2018-06-15T01:01:31.878Z,17.00
2018-06-15T01:02:31.847Z,17.60
2018-06-15T01:03:31.829Z,17.50
2018-06-15T01:04:31.829Z,17.60
2018-06-15T01:05:31.807Z,18.10
2018-06-15T01:06:31.799Z,17.80
2018-06-15T01:07:31.801Z,18.20
2018-06-15T01:08:31.759Z,17.90
2018-06-15T01:09:31.753Z,18.70
2018-06-15T01:10:31.730Z,18.00
2018-06-15T01:11:31.726Z,18.00
2018-06-15T01:12:31.710Z,17.60
2018-06-15T01:13:31.722Z,18.50
2018-06-15T01:14:31.679Z,18.70
2018-06-15T01:15:31.664Z,17.80
2018-06-15T01:16:31.652Z,18.10
2018-06-15T01:17:31.637Z,18.10
2018-06-15T01:18:31.641Z,17.70
2018-06-15T01:19:31.606Z,18.00
2018-06-15T01:20:31.591Z,17.40
2018-06-15T01:21:31.580Z,17.90
2018-06-15T01:22:31.570Z,17.20
2018-06-15T01:23:31.555Z,17.80
2018-06-15T01:24:31.555Z,17.40
2018-06-15T01:25:31.523Z,16.90
2018-06-15T01:26:31.521Z,17.00
2018-06-15T01:27:31.507Z,16.70
2018-06-15T01:28:31.483Z,16.10
2018-06-15T01:29:31.487Z,16.30
2018-06-15T01:30:31.477Z,16.90
2018-06-15T01:31:31.441Z,16.80
2018-06-15T01:32:31.426Z,16.40
2018-06-15T01:33:31.409Z,16.30
2018-06-15T01:34:38.951Z,17.00
2018-06-15T01:35:39.694Z,16.70
2018-06-15T01:36:39.725Z,17.20
2018-06-15T01:37:31.356Z,16.80
2018-06-15T01:38:31.344Z,17.90
2018-06-15T01:39:38.870Z,17.30
2018-06-15T01:40:39.799Z,17.10
2018-06-15T01:41:31.303Z,16.60
2018-06-15T01:42:31.286Z,17.00
2018-06-15T01:43:31.274Z,17.40
2018-06-15T01:44:31.254Z,17.00
2018-06-15T01:45:31.256Z,16.50
2018-06-15T01:46:31.229Z,16.70
2018-06-15T01:47:31.218Z,16.80
2018-06-15T01:48:31.199Z,16.90
2018-06-15T01:49:31.180Z,16.70
2018-06-15T01:50:31.186Z,16.60
2018-06-15T01:51:31.163Z,16.40
2018-06-15T01:52:31.146Z,15.80
2018-06-15T01:53:31.135Z,16.80
2018-06-15T01:54:31.142Z,17.30
2018-06-15T01:55:31.116Z,16.60
2018-06-15T01:56:31.089Z,16.80
2018-06-15T01:57:31.073Z,17.20
2018-06-15T01:58:31.058Z,16.80
2018-06-15T01:59:31.060Z,16.60
2018-06-15T02:00:31.031Z,16.40
2018-06-15T02:01:31.017Z,16.50
2018-06-15T02:02:31.006Z,16.30
2018-06-15T02:03:30.991Z,16.20
2018-06-15T02:04:30.976Z,15.80
2018-06-15T02:05:30.980Z,16.70
2018-06-15T02:06:30.945Z,16.30
2018-06-15T02:07:30.934Z,15.80
2018-06-15T02:08:30.919Z,16.00
2018-06-15T02:09:30.904Z,15.70
2018-06-15T02:10:30.891Z,15.60
2018-06-15T02:11:30.911Z,15.30
2018-06-15T02:12:30.865Z,16.00
2018-06-15T02:13:30.915Z,16.00
2018-06-15T02:14:30.830Z,16.30
2018-06-15T02:15:30.836Z,17.00
2018-06-15T02:16:30.826Z,16.50
2018-06-15T02:17:30.807Z,17.70
2018-06-15T02:18:30.779Z,17.80
2018-06-15T02:19:30.767Z,17.40
2018-06-15T02:20:30.755Z,17.60
2018-06-15T02:21:30.747Z,17.20
2018-06-15T02:22:30.741Z,16.50
2018-06-15T02:23:30.710Z,16.80
2018-06-15T02:24:30.711Z,17.00
2018-06-15T02:25:30.682Z,17.20
2018-06-15T02:26:30.669Z,17.00
2018-06-15T02:27:30.672Z,17.30
2018-06-15T02:28:30.655Z,16.80
2018-06-15T02:29:30.637Z,17.20
2018-06-15T02:30:30.629Z,17.00
2018-06-15T02:31:30.597Z,16.80
2018-06-15T02:32:30.600Z,16.80
2018-06-15T02:33:30.592Z,16.80
2018-06-15T02:34:30.568Z,17.00
2018-06-15T02:35:30.539Z,17.10
2018-06-15T02:36:30.531Z,17.10
2018-06-15T02:37:30.520Z,17.40
2018-06-15T02:38:30.502Z,17.50
2018-06-15T02:39:30.506Z,16.60
2018-06-15T02:40:30.472Z,16.70
2018-06-15T02:41:30.461Z,17.30
2018-06-15T02:42:30.445Z,17.50
2018-06-15T02:43:30.429Z,18.10
2018-06-15T02:44:30.435Z,17.30
2018-06-15T02:45:30.450Z,18.10
2018-06-15T02:46:30.393Z,17.60
2018-06-15T02:47:30.376Z,17.50
2018-06-15T02:48:30.364Z,18.50
2018-06-15T02:49:30.367Z,18.00
2018-06-15T02:50:30.336Z,17.90
2018-06-15T02:51:30.324Z,17.20
2018-06-15T02:52:30.307Z,17.70
2018-06-15T02:53:30.293Z,17.30
2018-06-15T02:54:30.279Z,17.40
2018-06-15T02:55:30.289Z,17.10
2018-06-15T02:56:30.246Z,17.30
2018-06-15T02:57:30.236Z,17.90
2018-06-15T02:58:30.224Z,17.20
2018-06-15T02:59:30.204Z,17.10
2018-06-15T03:00:30.214Z,17.30
2018-06-15T03:01:30.192Z,17.10
2018-06-15T03:02:30.163Z,17.60
2018-06-15T03:03:30.151Z,17.30
2018-06-15T03:04:30.139Z,18.10
2018-06-15T03:05:30.155Z,18.30
2018-06-15T03:06:30.126Z,17.50
2018-06-15T03:07:30.096Z,18.00
2018-06-15T03:08:30.087Z,17.70
2018-06-15T03:09:30.079Z,18.10
2018-06-15T03:10:30.057Z,18.10
2018-06-15T03:11:30.054Z,18.20
2018-06-15T03:12:30.025Z,17.90
2018-06-15T03:13:30.015Z,18.00
2018-06-15T03:14:29.997Z,18.80
2018-06-15T03:15:29.979Z,17.60
2018-06-15T03:16:29.995Z,17.50
2018-06-15T03:17:29.959Z,17.70
2018-06-15T03:18:29.958Z,16.50
2018-06-15T03:19:29.928Z,17.50
2018-06-15T03:20:29.930Z,17.60
2018-06-15T03:21:29.915Z,17.50
2018-06-15T03:22:29.901Z,17.50
2018-06-15T03:23:29.877Z,18.40
2018-06-15T03:24:29.874Z,18.80
2018-06-15T03:25:29.847Z,19.00
2018-06-15T03:26:29.845Z,18.00
2018-06-15T03:27:29.820Z,18.20
2018-06-15T03:28:29.804Z,17.30
2018-06-15T03:29:29.792Z,18.30
2018-06-15T03:30:29.804Z,18.10
2018-06-15T03:31:29.832Z,17.30
2018-06-15T03:32:43.863Z,17.40
2018-06-15T03:33:37.267Z,17.00
2018-06-15T03:34:37.930Z,18.10
2018-06-15T03:35:37.965Z,17.90
2018-06-15T03:36:29.688Z,17.60
2018-06-15T03:37:29.692Z,17.20
2018-06-15T03:38:38.017Z,17.10
2018-06-15T03:39:29.668Z,17.30
2018-06-15T03:40:29.633Z,16.70
2018-06-15T03:41:29.622Z,17.20
2018-06-15T03:42:29.654Z,17.20
2018-06-15T03:43:29.637Z,18.20
2018-06-15T03:44:29.593Z,18.50
2018-06-15T03:45:29.586Z,19.00
2018-06-15T03:46:29.568Z,18.50
2018-06-15T03:47:29.542Z,18.30
2018-06-15T03:48:29.523Z,18.60
2018-06-15T03:49:29.506Z,18.10
2018-06-15T03:50:29.511Z,17.80
2018-06-15T03:51:29.487Z,17.80
2018-06-15T03:52:29.485Z,19.10
2018-06-15T03:53:29.458Z,19.10
2018-06-15T03:54:29.459Z,19.00
2018-06-15T03:55:29.458Z,18.60
2018-06-15T03:56:29.427Z,18.60
2018-06-15T03:57:29.397Z,18.90
2018-06-15T03:58:29.387Z,18.60
2018-06-15T03:59:29.381Z,18.90
2018-06-15T04:00:29.361Z,18.20
2018-06-15T04:01:50.354Z,18.00
2018-06-15T04:02:29.349Z,18.20
2018-06-15T04:03:29.320Z,17.20
2018-06-15T04:04:29.307Z,17.70
2018-06-15T04:05:29.295Z,18.50
2018-06-15T04:06:29.302Z,18.20
2018-06-15T04:07:29.283Z,17.90
2018-06-15T04:08:29.252Z,18.30
2018-06-15T04:09:29.240Z,18.50
2018-06-15T04:10:29.226Z,18.90
2018-06-15T04:11:29.212Z,18.70
2018-06-15T04:12:29.216Z,18.00
2018-06-15T04:13:29.184Z,18.80
2018-06-15T04:14:29.171Z,18.40
2018-06-15T04:15:29.179Z,18.00
2018-06-15T04:16:29.162Z,18.30
2018-06-15T04:17:29.140Z,18.80
2018-06-15T04:18:29.133Z,18.40
2018-06-15T04:19:29.102Z,18.40
2018-06-15T04:20:29.092Z,18.30
2018-06-15T04:21:29.079Z,18.00
2018-06-15T04:22:29.084Z,18.40
2018-06-15T04:23:29.051Z,18.30
2018-06-15T04:24:29.033Z,18.10
2018-06-15T04:25:29.018Z,18.00
2018-06-15T04:26:29.006Z,18.60
2018-06-15T04:27:29.011Z,19.10
2018-06-15T04:28:28.999Z,18.90
2018-06-15T04:29:28.966Z,19.50
2018-06-15T04:30:28.955Z,19.40
2018-06-15T04:31:28.940Z,19.80
2018-06-15T04:32:28.929Z,19.80
2018-06-15T04:33:28.932Z,19.40
2018-06-15T04:34:28.917Z,19.50
2018-06-15T04:35:28.885Z,19.70
2018-06-15T04:36:28.879Z,19.20
2018-06-15T04:37:28.865Z,19.60
2018-06-15T04:38:28.865Z,20.10
2018-06-15T04:39:28.829Z,19.20
2018-06-15T04:40:28.818Z,20.40
2018-06-15T04:41:28.811Z,20.00
2018-06-15T04:42:28.795Z,20.50
2018-06-15T04:43:28.780Z,19.40
2018-06-15T04:44:28.784Z,20.20
2018-06-15T04:45:28.771Z,20.60
2018-06-15T04:46:28.735Z,20.20
2018-06-15T04:47:28.730Z,20.10
2018-06-15T04:48:28.715Z,20.60
2018-06-15T04:49:28.722Z,20.20
2018-06-15T04:50:28.684Z,20.10
2018-06-15T04:51:28.674Z,20.50
2018-06-15T04:52:28.658Z,20.00
2018-06-15T04:53:28.649Z,19.50
2018-06-15T04:54:28.639Z,20.00
2018-06-15T04:55:28.633Z,19.30
2018-06-15T04:56:28.607Z,19.50
2018-06-15T04:57:28.597Z,19.40
2018-06-15T04:58:28.582Z,19.40
2018-06-15T04:59:28.560Z,19.10
2018-06-15T05:00:28.566Z,19.40
2018-06-15T05:01:28.551Z,18.90
2018-06-15T05:02:28.524Z,19.10
2018-06-15T05:03:28.505Z,18.90
2018-06-15T05:04:28.494Z,18.30
2018-06-15T05:05:28.485Z,18.90
2018-06-15T05:06:28.486Z,19.00
2018-06-15T05:07:28.457Z,19.30
2018-06-15T05:08:28.461Z,19.30
2018-06-15T05:09:28.428Z,18.90
2018-06-15T05:10:28.412Z,19.10
2018-06-15T05:11:28.403Z,18.80
2018-06-15T05:12:28.385Z,19.50
2018-06-15T05:13:28.397Z,19.30
2018-06-15T05:14:28.384Z,19.70
2018-06-15T05:15:28.355Z,19.90
2018-06-15T05:16:28.337Z,19.10
2018-06-15T05:17:28.325Z,19.50
2018-06-15T05:18:28.373Z,19.20
2018-06-15T05:19:28.304Z,19.10
2018-06-15T05:20:28.288Z,19.00
2018-06-15T05:21:28.275Z,19.00
2018-06-15T05:22:28.286Z,19.70
2018-06-15T05:23:28.263Z,19.20
2018-06-15T05:24:28.251Z,19.20
2018-06-15T05:25:28.222Z,19.30
2018-06-15T05:26:28.215Z,18.70
2018-06-15T05:27:28.196Z,19.10
2018-06-15T05:28:28.187Z,19.20
2018-06-15T05:29:28.189Z,19.40
2018-06-15T05:30:28.158Z,19.50
2018-06-15T05:31:36.575Z,20.20
2018-06-15T05:32:28.131Z,19.60
2018-06-15T05:33:28.119Z,18.90
2018-06-15T05:34:28.107Z,20.20
2018-06-15T05:35:28.106Z,20.10
2018-06-15T05:36:28.092Z,20.90
2018-06-15T05:37:28.069Z,19.80
2018-06-15T05:38:28.052Z,20.00
2018-06-15T05:39:28.052Z,20.00
2018-06-15T05:40:28.036Z,20.50
2018-06-15T05:41:28.024Z,20.50
2018-06-15T05:42:28.012Z,20.80
2018-06-15T05:43:27.985Z,22.10
2018-06-15T05:44:27.978Z,21.20
2018-06-15T05:45:27.979Z,21.30
2018-06-15T05:46:27.950Z,20.90
2018-06-15T05:47:27.937Z,21.00
2018-06-15T05:48:27.921Z,21.00
2018-06-15T05:49:27.909Z,22.00
2018-06-15T05:50:27.912Z,21.70
2018-06-15T05:51:27.895Z,22.20
2018-06-15T05:52:27.876Z,22.90
2018-06-15T05:53:27.869Z,22.50
2018-06-15T05:54:27.848Z,22.40
2018-06-15T05:55:27.853Z,22.80
2018-06-15T05:56:27.841Z,22.10
2018-06-15T05:57:27.823Z,21.80
2018-06-15T05:58:27.796Z,22.20
2018-06-15T05:59:27.780Z,22.50
2018-06-15T06:00:27.773Z,22.20
2018-06-15T06:01:27.762Z,23.50
2018-06-15T06:02:27.757Z,23.60
2018-06-15T06:03:27.751Z,23.30
2018-06-15T06:04:27.721Z,23.70
2018-06-15T06:05:27.713Z,24.00
2018-06-15T06:06:27.696Z,23.60
2018-06-15T06:07:27.682Z,24.40
2018-06-15T06:08:27.686Z,23.40
2018-06-15T06:09:27.653Z,23.20
2018-06-15T06:10:27.645Z,24.00
2018-06-15T06:11:27.631Z,23.70
2018-06-15T06:12:27.615Z,23.80
2018-06-15T06:13:27.623Z,22.00
2018-06-15T06:14:27.597Z,23.70
2018-06-15T06:15:27.577Z,22.70
2018-06-15T06:16:27.574Z,23.00
2018-06-15T06:17:27.562Z,22.40
2018-06-15T06:18:27.553Z,22.90
2018-06-15T06:19:27.530Z,23.20
2018-06-15T06:20:27.515Z,23.10
2018-06-15T06:21:27.511Z,23.50
2018-06-15T06:22:27.490Z,22.90
2018-06-15T06:23:27.496Z,23.10
2018-06-15T06:24:27.486Z,23.00
2018-06-15T06:25:27.455Z,22.00
2018-06-15T06:26:27.445Z,23.20
2018-06-15T06:27:27.430Z,24.20
2018-06-15T06:28:27.423Z,24.10
2018-06-15T06:29:27.406Z,24.10
2018-06-15T06:30:27.407Z,23.40
2018-06-15T06:31:27.382Z,24.10
2018-06-15T06:32:27.386Z,23.80
2018-06-15T06:33:27.354Z,24.40
2018-06-15T06:34:27.360Z,23.20
2018-06-15T06:35:27.334Z,23.20
2018-06-15T06:36:27.325Z,23.50
2018-06-15T06:37:27.331Z,23.20
2018-06-15T06:38:27.297Z,23.80
2018-06-15T06:39:27.286Z,23.10
2018-06-15T06:40:27.291Z,23.40
2018-06-15T06:41:27.277Z,23.00
2018-06-15T06:42:27.250Z,22.20
2018-06-15T06:43:27.235Z,21.90
2018-06-15T06:44:27.227Z,22.70
2018-06-15T06:45:27.213Z,22.30
2018-06-15T06:46:27.231Z,20.90
2018-06-15T06:47:27.198Z,20.40
2018-06-15T06:48:27.180Z,22.50
2018-06-15T06:49:27.162Z,21.60
2018-06-15T06:50:27.210Z,21.40
2018-06-15T06:51:27.142Z,21.60
2018-06-15T06:52:27.146Z,21.80
2018-06-15T06:53:27.120Z,22.20
2018-06-15T06:54:27.109Z,22.20
2018-06-15T06:55:27.096Z,22.00
2018-06-15T06:56:27.085Z,21.70
2018-06-15T06:57:27.104Z,21.50
2018-06-15T06:58:27.070Z,20.40
2018-06-15T06:59:27.054Z,19.40
2018-06-15T07:00:27.042Z,20.10
2018-06-15T07:01:27.034Z,20.70
2018-06-15T07:02:27.020Z,18.70
2018-06-15T07:03:27.024Z,19.50
2018-06-15T07:04:27.009Z,19.60
2018-06-15T07:05:26.997Z,20.30
2018-06-15T07:06:26.981Z,20.50
2018-06-15T07:07:26.965Z,20.60
2018-06-15T07:08:26.967Z,19.60
2018-06-15T07:09:26.942Z,19.80
2018-06-15T07:10:26.928Z,19.90
2018-06-15T07:11:26.920Z,19.30
2018-06-15T07:12:26.908Z,18.70
2018-06-15T07:13:26.901Z,18.10
2018-06-15T07:14:26.900Z,18.10
2018-06-15T07:15:26.874Z,17.40
2018-06-15T07:16:26.867Z,18.00
2018-06-15T07:17:26.852Z,18.50
2018-06-15T07:18:26.845Z,18.70
2018-06-15T07:19:26.848Z,18.10
2018-06-15T07:20:26.821Z,18.30
2018-06-15T07:21:26.815Z,18.70
2018-06-15T07:22:26.810Z,18.50
2018-06-15T07:23:26.791Z,19.10
2018-06-15T07:24:26.777Z,20.30
2018-06-15T07:25:26.782Z,20.00
2018-06-15T07:26:26.757Z,19.50
2018-06-15T07:27:26.769Z,20.20
2018-06-15T07:28:26.739Z,20.20
2018-06-15T07:29:26.743Z,19.80
2018-06-15T07:30:26.737Z,20.10
2018-06-15T07:31:26.711Z,19.50
2018-06-15T07:32:26.693Z,18.30
2018-06-15T07:33:26.699Z,18.00
2018-06-15T07:34:26.678Z,18.40
2018-06-15T07:35:26.670Z,14.90
2018-06-15T07:36:26.679Z,12.70
2018-06-15T07:37:26.653Z,12.60
2018-06-15T07:38:26.638Z,15.10
2018-06-15T07:39:26.628Z,14.40
2018-06-15T07:40:26.610Z,15.30
2018-06-15T07:41:26.622Z,15.20
2018-06-15T07:42:26.597Z,14.60
2018-06-15T07:43:26.584Z,15.10
2018-06-15T07:44:26.573Z,16.30
2018-06-15T07:45:26.562Z,15.70
2018-06-15T07:46:26.569Z,15.90
2018-06-15T07:47:26.540Z,15.30
2018-06-15T07:48:26.534Z,15.90
2018-06-15T07:49:26.524Z,15.70
2018-06-15T07:50:26.507Z,16.00
2018-06-15T07:51:26.520Z,16.20
2018-06-15T07:52:26.515Z,15.40
2018-06-15T07:53:26.478Z,15.70
2018-06-15T07:54:26.465Z,16.10
2018-06-15T07:55:26.462Z,15.50
2018-06-15T07:56:26.445Z,15.50
2018-06-15T07:57:26.451Z,15.30
2018-06-15T07:58:26.421Z,15.90
2018-06-15T07:59:26.430Z,14.60
2018-06-15T08:00:26.403Z,14.80
2018-06-15T08:01:26.412Z,15.40
2018-06-15T08:02:26.380Z,15.20
2018-06-15T08:03:26.391Z,15.00
2018-06-15T08:04:26.359Z,15.10
2018-06-15T08:05:26.357Z,14.40
2018-06-15T08:06:26.342Z,13.90
2018-06-15T08:07:26.331Z,13.60
2018-06-15T08:08:26.323Z,15.90
2018-06-15T08:09:26.329Z,15.50
2018-06-15T08:10:26.295Z,15.30
2018-06-15T08:11:26.291Z,14.60
2018-06-15T08:12:47.297Z,14.60
2018-06-15T08:13:26.273Z,15.40
2018-06-15T08:14:26.275Z,15.40
2018-06-15T08:15:26.265Z,14.60
2018-06-15T08:16:26.243Z,14.40
2018-06-15T08:17:26.229Z,14.30
2018-06-15T08:18:26.237Z,13.10
2018-06-15T08:19:26.207Z,13.40
2018-06-15T08:20:26.197Z,12.40
2018-06-15T08:21:26.196Z,11.20
2018-06-15T08:22:26.179Z,11.40
2018-06-15T08:23:26.189Z,11.60
2018-06-15T08:24:26.156Z,10.80
2018-06-15T08:25:26.150Z,10.20
2018-06-15T08:26:26.138Z,10.50
2018-06-15T08:27:26.125Z,10.80
2018-06-15T08:28:26.114Z,10.80
2018-06-15T08:29:26.128Z,9.70
2018-06-15T08:30:26.097Z,9.70
2018-06-15T08:31:26.086Z,10.30
2018-06-15T08:32:26.074Z,10.70
2018-06-15T08:33:26.063Z,9.90
2018-06-15T08:34:26.071Z,9.30
2018-06-15T08:35:26.045Z,9.10
2018-06-15T08:36:26.037Z,9.60
2018-06-15T08:37:26.032Z,12.10
2018-06-15T08:38:26.013Z,12.20
2018-06-15T08:39:26.007Z,12.10
2018-06-15T08:40:26.013Z,8.10
2018-06-15T08:41:25.988Z,6.90
2018-06-15T08:42:26.016Z,6.20
2018-06-15T08:43:25.961Z,7.00
2018-06-15T08:44:25.957Z,7.00
2018-06-15T08:45:25.966Z,7.00
2018-06-15T08:46:25.935Z,7.50
2018-06-15T08:47:25.933Z,6.60
2018-06-15T08:48:25.916Z,6.30
2018-06-15T08:49:25.921Z,4.90
2018-06-15T08:50:25.894Z,4.90
2018-06-15T08:51:25.910Z,5.90
2018-06-15T08:52:25.876Z,5.40
2018-06-15T08:53:25.863Z,7.10
2018-06-15T08:54:25.855Z,6.80
2018-06-15T08:55:25.850Z,6.70
2018-06-15T08:56:25.853Z,6.40
2018-06-15T08:57:25.832Z,6.40
2018-06-15T08:58:25.822Z,7.50
2018-06-15T08:59:25.806Z,8.00
2018-06-15T09:00:25.804Z,8.40
2018-06-15T09:01:25.819Z,8.50
2018-06-15T09:02:25.787Z,8.60
2018-06-15T09:03:25.777Z,7.80
2018-06-15T09:04:25.767Z,7.50
2018-06-15T09:05:25.757Z,6.60
2018-06-15T09:06:25.748Z,6.30
2018-06-15T09:07:25.753Z,6.10
2018-06-15T09:08:25.725Z,4.90
2018-06-15T09:09:25.722Z,5.80
2018-06-15T09:10:25.711Z,5.20
2018-06-15T09:11:25.718Z,6.00
2018-06-15T09:12:25.690Z,6.10
2018-06-15T09:13:25.681Z,5.60
2018-06-15T09:14:25.668Z,5.30
2018-06-15T09:15:25.659Z,5.00
2018-06-15T09:16:25.656Z,5.10
2018-06-15T09:17:46.674Z,5.70
2018-06-15T09:18:25.633Z,6.10
2018-06-15T09:19:25.620Z,4.60
2018-06-15T09:20:25.615Z,4.10
2018-06-15T09:21:25.601Z,4.00
2018-06-15T09:22:25.593Z,4.20
2018-06-15T09:23:25.592Z,4.40
2018-06-15T09:24:25.570Z,4.30
2018-06-15T09:25:25.559Z,4.90
2018-06-15T09:26:25.563Z,4.50
2018-06-15T09:27:25.569Z,4.60
2018-06-15T09:28:25.528Z,4.40
2018-06-15T09:29:25.520Z,5.30
2018-06-15T09:30:25.512Z,5.90
2018-06-15T09:31:25.494Z,6.00
2018-06-15T09:32:25.487Z,6.60
2018-06-15T09:33:25.500Z,6.10
2018-06-15T09:34:25.470Z,6.10
2018-06-15T09:35:25.463Z,5.70
2018-06-15T09:36:25.453Z,5.90
2018-06-15T09:37:25.440Z,6.20
2018-06-15T09:38:25.429Z,5.60
2018-06-15T09:39:25.441Z,5.30
2018-06-15T09:40:25.419Z,5.70
2018-06-15T09:41:25.430Z,5.60
2018-06-15T09:42:25.405Z,5.50
2018-06-15T09:43:25.394Z,5.10
2018-06-15T09:44:25.413Z,5.20
2018-06-15T09:45:25.383Z,4.90
2018-06-15T09:46:25.395Z,4.40
2018-06-15T09:47:25.370Z,4.40
2018-06-15T09:48:25.364Z,4.80
2018-06-15T09:49:25.364Z,5.20
2018-06-15T09:50:25.682Z,5.00
2018-06-15T09:51:25.357Z,5.30
2018-06-15T09:52:25.347Z,5.20
2018-06-15T09:53:25.344Z,5.10
2018-06-15T09:55:57.575Z,4.50
2018-06-15T09:56:57.357Z,5.00
2018-06-15T09:57:57.360Z,5.20
2018-06-15T09:58:57.355Z,5.50
2018-06-15T09:59:57.368Z,5.20
2018-06-15T10:00:57.349Z,4.70
2018-06-15T10:01:57.363Z,4.90
2018-06-15T10:02:57.340Z,4.60
2018-06-15T10:03:57.336Z,4.80
2018-06-15T10:04:57.335Z,4.70
2018-06-15T10:05:57.350Z,5.40
2018-06-15T10:06:57.330Z,4.60
2018-06-15T10:07:57.322Z,4.60
2018-06-15T10:08:57.312Z,4.90
2018-06-15T10:09:57.312Z,4.50
2018-06-15T10:10:57.308Z,4.40
2018-06-15T10:11:57.320Z,4.50
2018-06-15T10:12:57.298Z,4.40
2018-06-15T10:13:57.297Z,4.30
2018-06-15T10:14:57.286Z,4.30
2018-06-15T10:15:57.285Z,4.40
2018-06-15T10:16:57.297Z,4.40
2018-06-15T10:17:57.292Z,4.40
2018-06-15T10:18:57.272Z,4.80
2018-06-15T10:19:57.268Z,4.60
2018-06-15T10:20:57.263Z,4.50
2018-06-15T10:21:57.277Z,5.10
2018-06-15T10:22:57.258Z,4.60
2018-06-15T10:23:57.250Z,4.60
2018-06-15T10:24:57.244Z,4.80
2018-06-15T10:25:57.238Z,5.40
2018-06-15T10:26:57.228Z,4.80
2018-06-15T10:27:57.256Z,4.80
2018-06-15T10:28:57.219Z,4.50
2018-06-15T10:29:57.222Z,4.70
2018-06-15T10:30:57.214Z,4.40
2018-06-15T10:31:57.210Z,4.40
2018-06-15T10:32:57.221Z,4.30
2018-06-15T10:33:57.218Z,4.00
2018-06-15T10:34:57.203Z,3.90
2018-06-15T10:35:57.191Z,4.20
2018-06-15T10:36:57.190Z,4.10
2018-06-15T10:37:57.183Z,4.30
2018-06-15T10:38:57.180Z,4.80
2018-06-15T10:39:57.193Z,4.50
2018-06-15T10:40:57.169Z,4.00
2018-06-15T10:41:57.167Z,4.00
2018-06-15T10:42:57.161Z,3.80
2018-06-15T10:43:57.177Z,3.80
2018-06-15T10:44:57.173Z,3.90
2018-06-15T10:45:57.174Z,4.10
2018-06-15T10:46:57.154Z,4.50
2018-06-15T10:47:57.156Z,4.00
2018-06-15T10:48:57.148Z,3.90
2018-06-15T10:49:57.161Z,3.70
2018-06-15T10:50:57.139Z,4.00
2018-06-15T10:51:57.137Z,4.00
2018-06-15T10:52:57.136Z,4.20
2018-06-15T10:53:57.136Z,4.10
2018-06-15T10:54:57.132Z,4.10
2018-06-15T10:55:57.159Z,3.90
2018-06-15T10:56:57.137Z,4.10
2018-06-15T10:57:57.123Z,4.00
2018-06-15T10:58:57.123Z,4.10
2018-06-15T10:59:57.114Z,3.70
2018-06-15T11:00:57.133Z,4.10
2018-06-15T11:01:57.115Z,4.10
2018-06-15T11:02:57.114Z,4.50
2018-06-15T11:03:57.112Z,4.00
2018-06-15T11:04:57.125Z,4.10
2018-06-15T11:05:57.125Z,3.70
2018-06-15T11:06:57.103Z,4.10
2018-06-15T11:07:57.100Z,3.90
2018-06-15T11:08:57.152Z,3.70
2018-06-15T11:09:57.111Z,4.00
2018-06-15T11:10:57.097Z,3.90
2018-06-15T11:11:57.114Z,3.90
2018-06-15T11:12:57.097Z,3.40
2018-06-15T11:13:57.098Z,3.60
2018-06-15T11:14:57.092Z,3.50
2018-06-15T11:15:57.112Z,3.60
2018-06-15T11:16:57.105Z,3.30
2018-06-15T11:17:57.089Z,3.70
2018-06-15T11:18:57.085Z,3.70
2018-06-15T11:19:57.117Z,3.40
2018-06-15T11:20:57.089Z,3.50
2018-06-15T11:21:57.086Z,3.70
2018-06-15T11:22:57.097Z,3.60
2018-06-15T11:23:57.081Z,3.70
2018-06-15T11:24:57.077Z,3.60
2018-06-15T11:25:57.079Z,3.60
2018-06-15T11:26:57.078Z,3.50
2018-06-15T11:27:57.089Z,3.70
2018-06-15T11:28:57.073Z,3.70
2018-06-15T11:29:57.072Z,3.50
2018-06-15T11:30:57.116Z,3.60
2018-06-15T11:31:57.070Z,3.80
2018-06-15T11:32:57.082Z,3.30
2018-06-15T11:33:57.058Z,3.60
2018-06-15T11:34:57.061Z,3.50
2018-06-15T11:35:57.060Z,3.30
2018-06-15T11:36:57.057Z,3.20
2018-06-15T11:37:57.073Z,3.20
2018-06-15T11:38:57.057Z,3.60
2018-06-15T11:39:57.053Z,3.20
2018-06-15T11:40:57.104Z,3.20
2018-06-15T11:41:57.052Z,2.90
2018-06-15T11:42:57.051Z,3.30
2018-06-15T11:43:57.070Z,3.20
2018-06-15T11:44:57.049Z,3.30
2018-06-15T11:45:57.051Z,3.40
2018-06-15T11:46:57.047Z,3.20
2018-06-15T11:47:57.042Z,3.00
2018-06-15T11:48:57.066Z,3.00
2018-06-15T11:49:57.064Z,3.10
2018-06-15T11:50:57.054Z,3.00
2018-06-15T11:51:57.044Z,2.80
2018-06-15T11:52:57.058Z,2.90
2018-06-15T11:53:57.042Z,2.90
2018-06-15T11:54:57.088Z,2.70
2018-06-15T11:55:57.041Z,3.00
2018-06-15T11:56:57.047Z,2.80
2018-06-15T11:57:57.048Z,3.00
2018-06-15T11:58:57.038Z,3.00
2018-06-15T11:59:57.061Z,3.20
2018-06-15T12:00:57.039Z,3.10
2018-06-15T12:01:57.036Z,3.00
2018-06-15T12:02:57.051Z,4.00
2018-06-15T12:03:57.039Z,3.30
2018-06-15T12:04:57.052Z,3.30
2018-06-15T12:05:57.051Z,3.30
2018-06-15T12:06:57.035Z,3.20
2018-06-15T12:07:57.090Z,3.30
2018-06-15T12:08:57.035Z,3.40
2018-06-15T12:09:57.031Z,3.10
2018-06-15T12:10:57.051Z,2.60
2018-06-15T12:11:57.025Z,3.20
2018-06-15T12:12:57.028Z,2.80
2018-06-15T12:13:57.025Z,2.70
2018-06-15T12:14:57.026Z,2.90
2018-06-15T12:15:57.030Z,3.10
2018-06-15T12:16:57.058Z,3.20
2018-06-15T12:17:57.020Z,3.30
2018-06-15T12:18:57.026Z,2.90
2018-06-15T12:19:57.025Z,3.30
2018-06-15T12:20:57.026Z,3.40
2018-06-15T12:21:57.039Z,3.80
2018-06-15T12:22:57.017Z,3.20
2018-06-15T12:23:57.022Z,3.10
2018-06-15T12:24:57.014Z,3.80
2018-06-15T12:25:57.019Z,2.70
2018-06-15T12:26:57.035Z,3.20
2018-06-15T12:27:57.014Z,3.40
2018-06-15T12:28:57.014Z,3.30
2018-06-15T12:29:57.013Z,3.40
2018-06-15T12:30:57.010Z,3.10
2018-06-15T12:31:57.010Z,3.40
2018-06-15T12:32:57.022Z,3.40
2018-06-15T12:33:57.002Z,3.20
2018-06-15T12:34:57.000Z,3.40
2018-06-15T12:35:56.992Z,3.30
2018-06-15T12:36:56.991Z,3.10
2018-06-15T12:37:56.982Z,2.80
2018-06-15T12:38:57.001Z,2.90
2018-06-15T12:39:56.983Z,2.80
2018-06-15T12:40:56.976Z,2.70
2018-06-15T12:41:56.973Z,2.80
2018-06-15T12:42:56.981Z,2.80
2018-06-15T12:43:56.968Z,3.20
2018-06-15T12:44:56.962Z,3.20
2018-06-15T12:45:56.982Z,3.30
2018-06-15T12:46:56.956Z,2.90
2018-06-15T12:47:56.970Z,3.00
2018-06-15T12:48:56.953Z,2.80
2018-06-15T12:49:56.951Z,2.70
2018-06-15T12:50:56.941Z,2.80
2018-06-15T12:51:56.943Z,2.50
2018-06-15T12:52:56.954Z,2.40
2018-06-15T12:53:56.957Z,2.50
2018-06-15T12:54:56.937Z,2.40
2018-06-15T12:55:56.938Z,2.30
2018-06-15T12:56:56.941Z,2.50
2018-06-15T12:57:56.928Z,2.40
2018-06-15T12:58:56.923Z,2.40
2018-06-15T12:59:56.940Z,2.50
2018-06-15T13:00:56.921Z,2.60
2018-06-15T13:01:56.915Z,2.50
2018-06-15T13:02:56.918Z,2.40